createdAt,value
2019-04-26T00:00:18.051Z,16.60
2019-04-26T00:02:52.829Z,16.60
2019-04-26T00:05:33.866Z,16.60
2019-04-26T00:07:54.795Z,16.50
2019-04-26T00:10:32.197Z,16.50
2019-04-26T00:13:20.341Z,16.50
2019-04-26T00:16:07.763Z,16.50
2019-04-26T00:18:39.505Z,16.50
2019-04-26T00:21:09.624Z,16.50
2019-04-26T00:23:40.587Z,16.50
2019-04-26T00:26:12.112Z,16.40
2019-04-26T00:28:42.150Z,16.40
2019-04-26T00:31:12.821Z,16.40
2019-04-26T00:33:43.005Z,16.30
2019-04-26T00:36:13.799Z,16.30
2019-04-26T00:38:44.570Z,16.30
2019-04-26T00:41:14.693Z,16.30
2019-04-26T00:43:45.016Z,16.30
2019-04-26T00:46:16.848Z,16.30
2019-04-26T00:48:48.018Z,16.20
2019-04-26T00:51:19.245Z,16.20
2019-04-26T00:53:50.436Z,16.10
2019-04-26T00:56:20.530Z,16.10
2019-04-26T00:58:51.951Z,16.20
2019-04-26T01:01:24.891Z,16.20
2019-04-26T01:03:54.983Z,16.10
2019-04-26T01:06:26.944Z,16.10
2019-04-26T01:08:56.909Z,16.10
2019-04-26T01:11:26.976Z,16.00
2019-04-26T01:13:56.968Z,16.00
2019-04-26T01:16:27.009Z,15.90
2019-04-26T01:18:58.900Z,16.00
2019-04-26T01:21:31.931Z,16.00
2019-04-26T01:24:04.666Z,16.00
2019-04-26T01:26:34.970Z,16.00
2019-04-26T01:29:07.948Z,15.90
2019-04-26T01:31:40.935Z,15.90
2019-04-26T01:34:11.260Z,15.90
2019-04-26T01:36:41.961Z,15.90
2019-04-26T01:39:21.309Z,16.00
2019-04-26T01:41:53.390Z,16.00
2019-04-26T01:44:30.804Z,15.90
2019-04-26T01:47:00.903Z,15.90
2019-04-26T01:49:30.793Z,15.90
2019-04-26T01:52:09.231Z,15.90
2019-04-26T01:54:44.560Z,15.90
2019-04-26T01:57:15.492Z,15.90
2019-04-26T01:59:50.007Z,15.90
2019-04-26T02:02:45.955Z,15.90
2019-04-26T02:05:17.920Z,16.00
2019-04-26T02:07:48.264Z,15.90
2019-04-26T02:10:20.594Z,15.90
2019-04-26T02:12:51.041Z,15.90
2019-04-26T02:15:24.467Z,15.90
2019-04-26T02:17:57.742Z,15.90
2019-04-26T02:20:42.698Z,15.90
2019-04-26T02:23:16.893Z,15.90
2019-04-26T02:25:47.013Z,15.90
2019-04-26T02:28:16.923Z,15.90
2019-04-26T02:30:47.065Z,15.90
2019-04-26T02:33:17.083Z,15.90
2019-04-26T02:35:47.000Z,15.80
2019-04-26T02:38:17.115Z,15.80
2019-04-26T02:40:47.320Z,15.80
2019-04-26T02:43:23.173Z,15.80
2019-04-26T02:46:13.384Z,15.80
2019-04-26T02:48:47.853Z,15.80
2019-04-26T02:51:36.305Z,15.70
2019-04-26T02:54:16.302Z,15.70
2019-04-26T02:56:48.194Z,15.70
2019-04-26T02:59:28.473Z,15.60
2019-04-26T03:02:01.406Z,15.60
2019-04-26T03:04:34.593Z,15.60
2019-04-26T03:07:08.201Z,15.60
2019-04-26T03:09:41.157Z,15.60
2019-04-26T03:12:19.063Z,15.60
2019-04-26T03:15:12.739Z,15.60
2019-04-26T03:17:37.291Z,15.60
2019-04-26T03:20:17.681Z,15.60
2019-04-26T03:22:56.223Z,15.50
2019-04-26T03:25:42.238Z,15.50
2019-04-26T03:28:18.050Z,15.50
2019-04-26T03:31:19.710Z,15.40
2019-04-26T03:34:05.243Z,15.50
2019-04-26T03:36:46.075Z,15.50
2019-04-26T03:39:20.705Z,15.50
2019-04-26T03:42:11.812Z,15.50
2019-04-26T03:45:08.867Z,15.50
2019-04-26T03:47:56.596Z,15.40
2019-04-26T03:50:39.700Z,15.40
2019-04-26T03:53:17.707Z,15.40
2019-04-26T03:56:08.735Z,15.40
2019-04-26T03:59:05.376Z,15.40
2019-04-26T04:01:41.417Z,15.40
2019-04-26T04:04:31.111Z,15.40
2019-04-26T04:07:05.001Z,15.30
2019-04-26T04:09:38.024Z,15.30
2019-04-26T04:12:23.830Z,15.20
2019-04-26T04:15:00.132Z,15.20
2019-04-26T04:17:50.344Z,15.20
2019-04-26T04:20:28.190Z,15.20
2019-04-26T04:23:06.966Z,15.20
2019-04-26T04:25:43.816Z,15.10
2019-04-26T04:28:28.815Z,15.10
2019-04-26T04:31:01.814Z,15.20
2019-04-26T04:33:54.215Z,15.20
2019-04-26T04:36:27.007Z,15.10
2019-04-26T04:39:12.333Z,15.10
2019-04-26T04:42:00.135Z,15.10
2019-04-26T04:45:10.882Z,15.10
2019-04-26T04:48:17.896Z,15.10
2019-04-26T04:50:59.482Z,15.00
2019-04-26T04:53:32.336Z,15.00
2019-04-26T04:56:17.023Z,15.10
2019-04-26T04:58:55.555Z,15.00
2019-04-26T05:01:58.809Z,15.00
2019-04-26T05:04:42.569Z,15.00
2019-04-26T05:07:29.075Z,15.00
2019-04-26T05:10:10.639Z,14.90
2019-04-26T05:12:52.561Z,15.00
2019-04-26T05:15:45.107Z,15.00
2019-04-26T05:18:31.281Z,15.00
2019-04-26T05:21:15.858Z,15.00
2019-04-26T05:23:57.755Z,14.90
2019-04-26T05:26:53.559Z,14.90
2019-04-26T05:29:31.067Z,14.90
2019-04-26T05:32:12.553Z,14.90
2019-04-26T05:34:49.006Z,14.90
2019-04-26T05:37:27.333Z,14.90
2019-04-26T05:40:06.159Z,14.90
2019-04-26T05:42:57.984Z,14.90
2019-04-26T05:46:10.092Z,14.90
2019-04-26T05:49:05.810Z,14.90
2019-04-26T05:52:02.128Z,14.90
2019-04-26T05:54:49.617Z,15.00
2019-04-26T05:57:45.900Z,15.00
2019-04-26T06:00:44.640Z,15.00
2019-04-26T06:03:37.009Z,14.90
2019-04-26T06:06:26.286Z,14.90
2019-04-26T06:09:09.628Z,14.90
2019-04-26T06:11:46.848Z,14.90
2019-04-26T06:14:46.426Z,14.90
2019-04-26T06:17:33.721Z,14.90
2019-04-26T06:20:23.523Z,14.90
2019-04-26T06:23:08.809Z,14.90
2019-04-26T06:25:48.957Z,14.80
2019-04-26T06:28:25.116Z,14.90
2019-04-26T06:31:12.438Z,14.80
2019-04-26T06:34:01.710Z,14.80
2019-04-26T06:36:36.308Z,14.90
2019-04-26T06:39:25.806Z,15.00
2019-04-26T06:42:23.036Z,15.00
2019-04-26T06:45:22.874Z,15.10
2019-04-26T06:47:59.922Z,15.10
2019-04-26T06:50:58.379Z,15.20
2019-04-26T06:53:32.629Z,15.20
2019-04-26T06:56:16.089Z,15.20
2019-04-26T06:59:35.535Z,15.30
2019-04-26T07:01:59.054Z,15.30
2019-04-26T07:04:51.647Z,15.40
2019-04-26T07:07:28.956Z,15.50
2019-04-26T07:10:02.454Z,15.50
2019-04-26T07:12:39.645Z,15.50
2019-04-26T07:15:28.322Z,15.50
2019-04-26T07:18:04.973Z,15.50
2019-04-26T07:27:06.245Z,15.40
2019-04-26T07:30:05.818Z,15.30
2019-04-26T07:32:54.364Z,15.30
2019-04-26T07:35:31.922Z,15.30
2019-04-26T07:39:09.168Z,15.30
2019-04-26T07:41:51.374Z,15.30
2019-04-26T07:44:27.552Z,15.20
2019-04-26T07:47:19.708Z,15.20
2019-04-26T07:50:25.872Z,15.20
2019-04-26T07:53:33.882Z,15.20
2019-04-26T07:56:13.567Z,15.20
2019-04-26T07:59:19.893Z,15.20
2019-04-26T08:02:19.402Z,15.20
2019-04-26T08:05:03.312Z,15.10
2019-04-26T08:07:42.849Z,15.20
2019-04-26T08:10:19.043Z,15.10
2019-04-26T08:12:57.663Z,15.10
2019-04-26T08:15:34.833Z,15.10
2019-04-26T08:18:09.374Z,15.10
2019-04-26T08:20:52.497Z,15.10
2019-04-26T08:23:41.093Z,15.00
2019-04-26T08:26:05.115Z,15.10
2019-04-26T08:28:36.575Z,15.00
2019-04-26T08:31:10.801Z,15.10
2019-04-26T08:34:00.571Z,15.10
2019-04-26T08:36:35.094Z,15.10
2019-04-26T08:39:10.884Z,15.10
2019-04-26T08:41:43.420Z,15.20
2019-04-26T08:44:34.526Z,15.20
2019-04-26T08:47:21.003Z,15.20
2019-04-26T08:50:00.965Z,15.20
2019-04-26T08:52:33.943Z,15.30
2019-04-26T08:55:06.003Z,15.40
2019-04-26T08:57:39.022Z,15.40
2019-04-26T09:00:15.433Z,15.60
2019-04-26T09:03:11.314Z,15.70
2019-04-26T09:05:52.591Z,15.80
2019-04-26T09:08:25.964Z,15.80
2019-04-26T09:10:58.805Z,15.80
2019-04-26T09:13:31.758Z,15.80
2019-04-26T09:16:07.874Z,15.80
2019-04-26T09:18:43.516Z,15.80
2019-04-26T09:21:13.293Z,15.80
2019-04-26T09:23:52.240Z,15.80
2019-04-26T09:26:26.332Z,15.80
2019-04-26T09:29:04.011Z,15.90
2019-04-26T09:31:38.637Z,15.90
2019-04-26T09:34:22.274Z,15.90
2019-04-26T09:36:54.852Z,15.90
2019-04-26T09:39:24.441Z,15.90
2019-04-26T09:41:55.989Z,15.90
2019-04-26T09:44:37.648Z,15.90
2019-04-26T09:47:26.462Z,15.80
2019-04-26T09:53:58.492Z,15.80
2019-04-26T09:56:28.741Z,15.80
2019-04-26T09:59:01.483Z,15.80
2019-04-26T10:01:32.183Z,15.80
2019-04-26T10:04:02.198Z,15.80
2019-04-26T10:06:32.114Z,15.80
2019-04-26T10:09:01.937Z,15.80
2019-04-26T10:11:33.478Z,15.80
2019-04-26T10:14:07.773Z,15.80
2019-04-26T10:16:55.631Z,15.90
2019-04-26T10:19:33.169Z,15.90
2019-04-26T10:22:03.141Z,16.00
2019-04-26T10:25:27.430Z,16.00
2019-04-26T10:27:57.446Z,16.00
2019-04-26T10:30:27.364Z,16.00
2019-04-26T10:32:58.329Z,16.00
2019-04-26T10:35:29.033Z,16.00
2019-04-26T10:37:59.151Z,16.00
2019-04-26T10:40:35.462Z,16.00
2019-04-26T10:43:00.721Z,16.10
2019-04-26T10:45:30.816Z,16.10
2019-04-26T10:48:00.862Z,16.20
2019-04-26T10:50:32.954Z,16.20
2019-04-26T10:53:06.596Z,16.30
2019-04-26T10:55:42.526Z,16.20
2019-04-26T10:58:20.903Z,16.30
2019-04-26T11:00:55.392Z,16.20
2019-04-26T11:03:25.240Z,16.20
2019-04-26T11:05:55.344Z,16.20
2019-04-26T11:08:25.567Z,16.10
2019-04-26T11:10:55.455Z,16.10
2019-04-26T11:13:25.483Z,16.10
2019-04-26T11:15:55.417Z,16.10
2019-04-26T11:18:27.763Z,16.10
2019-04-26T11:20:56.887Z,16.10
2019-04-26T11:23:26.897Z,16.10
2019-04-26T11:25:57.890Z,16.10
2019-04-26T11:28:28.673Z,16.10
2019-04-26T11:30:58.647Z,16.00
2019-04-26T11:33:28.811Z,16.10
2019-04-26T11:35:58.828Z,16.00
2019-04-26T11:38:31.282Z,16.00
2019-04-26T11:41:06.094Z,16.00
2019-04-26T11:43:32.050Z,16.00
2019-04-26T11:46:05.383Z,16.00
2019-04-26T11:48:33.517Z,15.90
2019-04-26T11:51:03.842Z,15.90
2019-04-26T11:53:33.758Z,15.90
2019-04-26T11:56:04.635Z,16.00
2019-04-26T11:58:35.114Z,16.00
2019-04-26T12:01:06.919Z,16.00
2019-04-26T12:03:36.894Z,16.10
2019-04-26T12:06:11.212Z,16.10
2019-04-26T12:08:51.575Z,16.20
2019-04-26T12:11:31.512Z,16.20
2019-04-26T12:13:55.334Z,16.30
2019-04-26T12:16:24.497Z,16.30
2019-04-26T12:18:54.405Z,16.40
2019-04-26T12:21:24.323Z,16.40
2019-04-26T12:23:56.899Z,16.50
2019-04-26T12:26:42.140Z,16.50
2019-04-26T12:29:01.538Z,16.50
2019-04-26T12:31:33.488Z,16.50
2019-04-26T12:34:03.489Z,16.40
2019-04-26T12:36:33.532Z,16.40
2019-04-26T12:39:04.053Z,16.40
2019-04-26T12:41:40.170Z,16.30
2019-04-26T12:44:05.939Z,16.30
2019-04-26T12:46:37.595Z,16.30
2019-04-26T12:49:07.612Z,16.30
2019-04-26T12:51:38.328Z,16.30
2019-04-26T12:54:09.926Z,16.30
2019-04-26T12:56:40.322Z,16.30
2019-04-26T12:59:10.444Z,16.20
2019-04-26T13:01:42.584Z,16.20
2019-04-26T13:04:11.896Z,16.20
2019-04-26T13:07:02.361Z,16.10
2019-04-26T13:09:34.678Z,16.10
2019-04-26T13:12:06.638Z,16.10
2019-04-26T13:14:56.093Z,16.10
2019-04-26T13:17:31.302Z,16.10
2019-04-26T13:19:59.166Z,16.20
2019-04-26T13:22:31.895Z,16.30
2019-04-26T13:25:00.555Z,16.40
2019-04-26T13:27:30.599Z,16.50
2019-04-26T13:30:02.500Z,16.60
2019-04-26T13:32:32.177Z,16.60
2019-04-26T13:35:02.186Z,16.70
2019-04-26T13:37:35.639Z,16.70
2019-04-26T13:40:04.632Z,16.70
2019-04-26T13:42:34.794Z,16.70
2019-04-26T13:45:13.927Z,16.70
2019-04-26T13:48:01.665Z,16.80
2019-04-26T13:50:39.020Z,16.90
2019-04-26T13:53:09.073Z,16.90
2019-04-26T13:55:39.058Z,16.90
2019-04-26T13:58:09.206Z,16.90
2019-04-26T14:00:39.689Z,16.90
2019-04-26T14:03:10.779Z,17.00
2019-04-26T14:05:40.993Z,17.10
2019-04-26T14:08:11.118Z,17.10
2019-04-26T14:10:41.131Z,17.10
2019-04-26T14:13:11.154Z,17.10
2019-04-26T14:15:43.977Z,17.10
2019-04-26T14:18:12.822Z,17.10
2019-04-26T14:20:42.738Z,17.10
2019-04-26T14:23:23.272Z,17.20
2019-04-26T14:26:11.340Z,17.20
2019-04-26T14:28:42.115Z,17.10
2019-04-26T14:31:16.453Z,17.00
2019-04-26T14:33:44.257Z,17.00
2019-04-26T14:36:17.953Z,16.90
2019-04-26T14:38:46.435Z,16.80
2019-04-26T14:41:21.917Z,16.80
2019-04-26T14:43:48.111Z,16.70
2019-04-26T14:46:18.271Z,16.70
2019-04-26T14:49:00.958Z,16.70
2019-04-26T14:51:20.208Z,16.70
2019-04-26T14:53:50.144Z,16.60
2019-04-26T14:56:20.009Z,16.60
2019-04-26T14:58:49.956Z,16.60
2019-04-26T15:01:21.711Z,16.60
2019-04-26T15:04:09.344Z,16.60
2019-04-26T15:06:42.400Z,16.60
2019-04-26T15:09:19.442Z,16.50
2019-04-26T15:11:53.300Z,16.60
2019-04-26T15:14:19.020Z,16.50
2019-04-26T15:16:47.615Z,16.50
2019-04-26T15:19:17.634Z,16.50
2019-04-26T15:21:47.753Z,16.40
2019-04-26T15:24:17.881Z,16.40
2019-04-26T15:26:48.196Z,16.30
2019-04-26T15:29:21.246Z,16.30
2019-04-26T15:31:53.708Z,16.30
2019-04-26T15:34:23.661Z,16.30
2019-04-26T15:36:54.239Z,16.30
2019-04-26T15:39:26.070Z,16.30
2019-04-26T15:42:13.036Z,16.30
2019-04-26T15:44:44.835Z,16.30
2019-04-26T15:47:23.588Z,16.20
2019-04-26T15:49:55.314Z,16.20
2019-04-26T15:52:30.003Z,16.20
2019-04-26T15:54:58.554Z,16.20
2019-04-26T15:57:32.244Z,16.30
2019-04-26T16:00:00.065Z,16.30
2019-04-26T16:02:30.211Z,16.20
2019-04-26T16:05:00.229Z,16.20
2019-04-26T16:07:30.246Z,16.20
2019-04-26T16:10:00.159Z,16.30
2019-04-26T16:12:31.981Z,16.30
2019-04-26T16:15:02.417Z,16.20
2019-04-26T16:17:32.544Z,16.20
2019-04-26T16:20:02.481Z,16.20
2019-04-26T16:22:33.195Z,16.20
2019-04-26T16:25:05.298Z,16.20
2019-04-26T16:27:35.276Z,16.20
2019-04-26T16:30:28.389Z,16.20
2019-04-26T16:33:00.415Z,16.10
2019-04-26T16:35:30.322Z,16.40
2019-04-26T16:38:06.659Z,16.60
2019-04-26T16:40:33.539Z,16.80
2019-04-26T16:43:04.186Z,16.90
2019-04-26T16:45:37.235Z,17.00
2019-04-26T16:48:05.745Z,17.00
2019-04-26T16:50:43.786Z,17.00
2019-04-26T16:53:23.191Z,17.10
2019-04-26T16:55:49.189Z,17.10
2019-04-26T16:58:12.244Z,17.10
2019-04-26T17:00:51.538Z,17.20
2019-04-26T17:03:13.604Z,17.10
2019-04-26T17:05:48.364Z,17.10
2019-04-26T17:08:19.126Z,17.20
2019-04-26T17:10:46.962Z,17.20
2019-04-26T17:13:17.043Z,17.10
2019-04-26T17:15:47.191Z,17.20
2019-04-26T17:18:19.439Z,17.10
2019-04-26T17:20:48.844Z,17.10
2019-04-26T17:23:25.399Z,17.10
2019-04-26T17:25:55.118Z,17.10
2019-04-26T17:28:26.507Z,17.10
2019-04-26T17:30:56.723Z,17.10
2019-04-26T17:33:28.237Z,17.10
2019-04-26T17:35:58.589Z,17.10
2019-04-26T17:38:28.501Z,17.10
2019-04-26T17:40:58.417Z,17.00
2019-04-26T17:43:30.597Z,17.00
2019-04-26T17:46:01.121Z,17.00
2019-04-26T17:48:33.595Z,17.00
2019-04-26T17:51:03.095Z,17.00
2019-04-26T17:53:33.741Z,16.90
2019-04-26T17:56:03.923Z,16.90
2019-04-26T17:58:38.666Z,16.90
2019-04-26T18:01:06.132Z,16.90
2019-04-26T18:03:36.350Z,16.90
2019-04-26T18:06:09.685Z,16.90
2019-04-26T18:08:45.356Z,16.90
2019-04-26T18:11:18.901Z,16.80
2019-04-26T18:13:41.332Z,16.80
2019-04-26T18:16:11.452Z,16.80
2019-04-26T18:18:50.052Z,16.80
2019-04-26T18:21:35.246Z,16.80
2019-04-26T18:24:05.439Z,16.70
2019-04-26T18:26:35.486Z,16.70
2019-04-26T18:29:05.907Z,16.70
2019-04-26T18:31:35.944Z,16.70
2019-04-26T18:34:05.943Z,16.60
2019-04-26T18:36:36.058Z,16.60
2019-04-26T18:39:08.432Z,16.60
2019-04-26T18:41:38.348Z,16.60
2019-04-26T18:44:09.666Z,16.60
2019-04-26T18:46:46.921Z,16.50
2019-04-26T18:49:18.199Z,16.50
2019-04-26T18:51:48.503Z,16.50
2019-04-26T18:54:18.013Z,16.50
2019-04-26T18:56:55.344Z,16.50
2019-04-26T18:59:27.717Z,16.50
2019-04-26T19:01:56.915Z,16.40
2019-04-26T19:04:26.849Z,16.40
2019-04-26T19:06:56.739Z,16.40
2019-04-26T19:09:27.087Z,16.30
2019-04-26T19:11:57.187Z,16.40
2019-04-26T19:14:32.021Z,16.30
2019-04-26T19:17:21.959Z,16.30
2019-04-26T19:19:53.349Z,16.30
2019-04-26T19:22:23.365Z,16.20
2019-04-26T19:24:56.375Z,16.30
2019-04-26T19:27:26.462Z,16.20
2019-04-26T19:29:56.487Z,16.20
2019-04-26T19:32:26.377Z,16.20
2019-04-26T19:35:00.693Z,16.20
2019-04-26T19:37:30.387Z,16.20
2019-04-26T19:40:02.870Z,16.20
2019-04-26T19:42:32.483Z,16.10
2019-04-26T19:45:13.750Z,16.10
2019-04-26T19:47:48.116Z,16.10
2019-04-26T19:50:36.155Z,16.00
2019-04-26T19:53:10.362Z,16.00
2019-04-26T19:55:41.837Z,15.90
2019-04-26T19:58:20.086Z,16.00
2019-04-26T20:00:46.887Z,16.00
2019-04-26T20:03:17.466Z,16.00
2019-04-26T20:05:47.627Z,16.00
2019-04-26T20:08:17.634Z,15.90
2019-04-26T20:10:52.035Z,15.90
2019-04-26T20:13:22.178Z,15.90
2019-04-26T20:15:53.164Z,15.90
2019-04-26T20:18:23.742Z,15.90
2019-04-26T20:20:53.765Z,15.80
2019-04-26T20:23:23.879Z,15.90
2019-04-26T20:25:53.803Z,15.80
2019-04-26T20:28:23.811Z,15.80
2019-04-26T20:30:57.870Z,15.80
2019-04-26T20:33:31.254Z,15.80
2019-04-26T20:36:01.919Z,15.70
2019-04-26T20:38:35.849Z,15.70
2019-04-26T20:41:02.067Z,15.80
2019-04-26T20:43:36.218Z,15.70
2019-04-26T20:46:14.112Z,15.70
2019-04-26T20:48:36.543Z,15.70
2019-04-26T20:51:10.450Z,15.60
2019-04-26T20:53:41.077Z,15.60
2019-04-26T20:56:16.092Z,15.60
2019-04-26T20:58:43.222Z,15.60
2019-04-26T21:01:14.292Z,15.60
2019-04-26T21:03:45.992Z,15.60
2019-04-26T21:06:19.051Z,15.60
2019-04-26T21:08:48.961Z,15.60
2019-04-26T21:11:18.959Z,15.60
2019-04-26T21:13:48.997Z,15.50
2019-04-26T21:16:19.118Z,15.50
2019-04-26T21:18:49.237Z,15.50
2019-04-26T21:21:19.151Z,15.50
2019-04-26T21:23:50.581Z,15.50
2019-04-26T21:26:22.153Z,15.50
2019-04-26T21:28:54.242Z,15.50
2019-04-26T21:31:29.354Z,15.40
2019-04-26T21:34:01.111Z,15.40
2019-04-26T21:36:41.288Z,15.30
2019-04-26T21:39:24.092Z,15.30
2019-04-26T21:41:55.840Z,15.30
2019-04-26T21:44:26.040Z,15.30
2019-04-26T21:46:58.839Z,15.40
2019-04-26T21:49:27.636Z,15.40
2019-04-26T21:51:57.521Z,15.30
2019-04-26T21:54:27.358Z,15.30
2019-04-26T21:56:57.381Z,15.30
2019-04-26T21:59:27.495Z,15.20
2019-04-26T22:01:59.272Z,15.30
2019-04-26T22:04:36.368Z,15.20
2019-04-26T22:07:05.164Z,15.20
2019-04-26T22:09:50.603Z,15.20
2019-04-26T22:12:21.029Z,15.20
2019-04-26T22:15:00.690Z,15.10
2019-04-26T22:17:28.537Z,15.10
2019-04-26T22:20:00.089Z,15.10
2019-04-26T22:22:33.529Z,15.10
2019-04-26T22:25:05.537Z,15.00
2019-04-26T22:27:35.392Z,15.00
2019-04-26T22:30:08.349Z,15.00
2019-04-26T22:32:38.673Z,15.00
2019-04-26T22:35:08.893Z,15.00
2019-04-26T22:37:41.415Z,15.00
2019-04-26T22:40:14.354Z,14.90
2019-04-26T22:42:44.039Z,14.90
2019-04-26T22:45:21.352Z,14.90
2019-04-26T22:47:53.617Z,14.90
2019-04-26T22:50:25.068Z,14.90
2019-04-26T22:52:55.292Z,14.80
2019-04-26T22:55:27.575Z,14.80
2019-04-26T22:57:56.863Z,14.80
2019-04-26T23:00:29.536Z,14.90
2019-04-26T23:03:05.463Z,14.90
2019-04-26T23:05:37.255Z,14.90
2019-04-26T23:08:03.377Z,14.80
2019-04-26T23:10:35.127Z,14.80
2019-04-26T23:13:07.971Z,14.80
2019-04-26T23:15:55.037Z,14.80
2019-04-26T23:18:46.173Z,14.80
2019-04-26T23:21:16.539Z,14.80
2019-04-26T23:23:46.487Z,14.80
2019-04-26T23:26:16.520Z,14.80
2019-04-26T23:28:46.515Z,14.70
2019-04-26T23:31:16.630Z,14.80
2019-04-26T23:33:46.659Z,14.70
2019-04-26T23:36:18.320Z,14.70
2019-04-26T23:38:48.334Z,14.70
2019-04-26T23:41:18.252Z,14.70
2019-04-26T23:43:48.167Z,14.70
2019-04-26T23:46:18.897Z,14.60
2019-04-26T23:48:50.015Z,14.60
2019-04-26T23:51:20.133Z,14.60
2019-04-26T23:53:50.516Z,14.60
2019-04-26T23:56:25.202Z,14.60
2019-04-26T23:58:53.167Z,14.60
